Maple Grove, Washington
Current Conditions -  °F | °C
As of 2:53 AM on Monday 20 Oct 2014 (Local Time) from KCLM Reporting Station
Light Rain Light Rain  
Wind Chill: 55°   Ceiling: 5500
Heat Index: 55°   Visibility: 10mi
Dew Point: 54°   Wind: 3mph
Humidity: 96%   Direction: 150°SSE
Pressure: 29.66"   Gusts: NA
Location:  48.0203°N, 123.478°W
Report Text: KCLM 200953Z AUTO 15003KT 10SM -RA FEW019 BKN055 OVC070 13/12 A2966 RMK AO2 RAE11B51 SLP042 P0001 T01280122 TSNO $
Loading
Personal Weather Stations






























Interactive Weather Map
Tropical Storm Tracking
New forecast layout! Learn more

10-Day Weather Forecast

Advertisements
Track Severe Weather on mobile